createdAt,value
2018-09-04T00:01:14.134Z,19.37
2018-09-04T00:03:43.244Z,19.37
2018-09-04T00:06:12.680Z,19.37
2018-09-04T00:08:41.933Z,19.33
2018-09-04T00:11:11.091Z,19.29
2018-09-04T00:13:40.368Z,19.33
2018-09-04T00:16:10.617Z,19.34
2018-09-04T00:18:40.722Z,19.30
2018-09-04T00:21:09.822Z,19.25
2018-09-04T00:23:39.063Z,19.34
2018-09-04T00:26:08.232Z,19.32
2018-09-04T00:28:37.402Z,19.35
2018-09-04T00:31:06.579Z,19.28
2018-09-04T00:33:35.819Z,19.21
2018-09-04T00:36:04.959Z,19.17
2018-09-04T00:38:34.091Z,19.13
2018-09-04T00:41:03.277Z,19.06
2018-09-04T00:43:32.387Z,19.06
2018-09-04T00:46:01.570Z,19.11
2018-09-04T00:48:30.775Z,19.13
2018-09-04T00:50:59.944Z,19.18
2018-09-04T00:53:29.200Z,19.23
2018-09-04T00:55:58.406Z,19.18
2018-09-04T00:58:27.547Z,19.23
2018-09-04T01:00:56.731Z,19.26
2018-09-04T01:03:25.859Z,19.19
2018-09-04T01:05:55.067Z,19.13
2018-09-04T01:08:24.250Z,19.05
2018-09-04T01:10:53.500Z,18.96
2018-09-04T01:13:22.649Z,18.95
2018-09-04T01:15:51.820Z,18.88
2018-09-04T01:18:20.975Z,18.85
2018-09-04T01:20:50.183Z,18.86
2018-09-04T01:23:19.299Z,18.91
2018-09-04T01:25:48.653Z,18.90
2018-09-04T01:28:17.883Z,18.89
2018-09-04T01:30:47.026Z,18.94
2018-09-04T01:33:16.172Z,18.96
2018-09-04T01:35:45.298Z,18.99
2018-09-04T01:38:14.427Z,19.04
2018-09-04T01:40:43.606Z,19.04
2018-09-04T01:43:12.745Z,19.04
2018-09-04T01:45:41.959Z,19.01
2018-09-04T01:48:11.151Z,18.90
2018-09-04T01:50:40.307Z,18.86
2018-09-04T01:53:09.548Z,18.80
2018-09-04T01:55:38.615Z,18.84
2018-09-04T01:58:07.869Z,18.82
2018-09-04T02:00:37.059Z,18.73
2018-09-04T02:03:06.272Z,18.69
2018-09-04T02:05:35.446Z,18.77
2018-09-04T02:08:04.658Z,18.80
2018-09-04T02:10:33.798Z,18.82
2018-09-04T02:13:02.931Z,18.83
2018-09-04T02:15:32.115Z,18.91
2018-09-04T02:18:01.357Z,18.87
2018-09-04T02:20:30.469Z,18.88
2018-09-04T02:22:59.673Z,18.84
2018-09-04T02:25:28.925Z,18.91
2018-09-04T02:27:58.179Z,18.96
2018-09-04T02:30:27.423Z,18.91
2018-09-04T02:32:56.824Z,18.87
2018-09-04T02:35:25.922Z,18.85
2018-09-04T02:37:55.164Z,18.86
2018-09-04T02:40:24.483Z,18.95
2018-09-04T02:46:03.611Z,18.99
2018-09-04T02:48:32.774Z,18.98
2018-09-04T02:51:02.076Z,18.99
2018-09-04T02:53:31.304Z,19.05
2018-09-04T02:56:00.602Z,19.13
2018-09-04T02:58:29.813Z,19.14
2018-09-04T03:00:59.055Z,19.13
2018-09-04T03:03:28.292Z,19.11
2018-09-04T03:05:57.500Z,19.12
2018-09-04T03:08:26.763Z,19.09
2018-09-04T03:10:56.027Z,19.09
2018-09-04T03:13:25.139Z,19.11
2018-09-04T03:15:54.391Z,19.06
2018-09-04T03:18:23.579Z,19.02
2018-09-04T03:20:52.841Z,19.11
2018-09-04T03:23:21.980Z,19.07
2018-09-04T03:25:51.157Z,19.13
2018-09-04T03:28:20.392Z,19.12
2018-09-04T03:30:49.652Z,19.13
2018-09-04T03:33:18.871Z,19.11
2018-09-04T03:35:48.075Z,19.04
2018-09-04T03:38:17.320Z,19.00
2018-09-04T03:40:46.469Z,19.06
2018-09-04T03:43:15.691Z,19.07
2018-09-04T03:45:44.855Z,19.13
2018-09-04T03:48:14.036Z,19.07
2018-09-04T03:50:43.211Z,19.07
2018-09-04T03:53:12.475Z,19.11
2018-09-04T03:55:41.604Z,19.03
2018-09-04T03:58:10.742Z,18.95
2018-09-04T04:00:39.924Z,18.92
2018-09-04T04:03:09.107Z,18.92
2018-09-04T04:05:38.406Z,18.95
2018-09-04T04:08:07.585Z,18.89
2018-09-04T04:10:36.700Z,18.90
2018-09-04T04:13:05.949Z,18.89
2018-09-04T04:15:35.431Z,18.85
2018-09-04T04:18:04.947Z,18.84
2018-09-04T04:20:34.099Z,18.89
2018-09-04T04:23:03.353Z,18.90
2018-09-04T04:25:32.487Z,18.82
2018-09-04T04:28:01.720Z,18.74
2018-09-04T04:30:30.928Z,18.73
2018-09-04T04:33:00.147Z,18.65
2018-09-04T04:35:29.240Z,18.61
2018-09-04T04:37:58.463Z,18.55
2018-09-04T04:40:27.708Z,18.60
2018-09-04T04:42:57.061Z,18.62
2018-09-04T04:45:26.400Z,18.59
2018-09-04T04:47:55.665Z,18.65
2018-09-04T04:50:24.792Z,18.65
2018-09-04T04:52:53.959Z,18.64
2018-09-04T04:55:23.160Z,18.59
2018-09-04T04:57:52.427Z,18.53
2018-09-04T05:00:21.707Z,18.54
2018-09-04T05:02:50.770Z,18.49
2018-09-04T05:05:19.916Z,18.35
2018-09-04T05:07:51.715Z,18.30
2018-09-04T05:10:20.894Z,18.26
2018-09-04T05:12:50.408Z,18.21
2018-09-04T05:15:20.304Z,18.22
2018-09-04T05:17:49.435Z,18.21
2018-09-04T05:20:27.439Z,18.20
2018-09-04T05:22:56.592Z,18.22
2018-09-04T05:25:25.700Z,18.27
2018-09-04T05:27:54.855Z,18.37
2018-09-04T05:30:24.000Z,18.43
2018-09-04T05:33:00.518Z,18.51
2018-09-04T05:35:33.902Z,18.51
2018-09-04T05:38:03.007Z,18.66
2018-09-04T05:40:32.108Z,18.80
2018-09-04T05:43:03.728Z,18.86
2018-09-04T05:45:33.637Z,18.89
2018-09-04T05:48:05.078Z,19.01
2018-09-04T05:50:34.259Z,19.01
2018-09-04T05:53:03.388Z,19.14
2018-09-04T05:55:32.537Z,19.30
2018-09-04T05:58:02.192Z,19.31
2018-09-04T06:00:36.292Z,19.35
2018-09-04T06:03:05.403Z,19.56
2018-09-04T06:05:34.558Z,19.68
2018-09-04T06:08:03.728Z,19.83
2018-09-04T06:10:32.946Z,19.99
2018-09-04T06:13:02.113Z,20.09
2018-09-04T06:15:31.287Z,20.20
2018-09-04T06:18:00.460Z,20.43
2018-09-04T06:20:29.787Z,20.50
2018-09-04T06:22:59.039Z,20.63
2018-09-04T06:25:28.209Z,20.67
2018-09-04T06:27:57.351Z,20.93
2018-09-04T06:30:26.579Z,20.83
2018-09-04T06:32:55.757Z,20.66
2018-09-04T06:35:24.960Z,21.17
2018-09-04T06:37:54.094Z,21.45
2018-09-04T06:40:23.291Z,21.66
2018-09-04T06:42:52.401Z,21.25
2018-09-04T06:45:21.904Z,21.87
2018-09-04T06:47:51.145Z,22.06
2018-09-04T06:50:20.275Z,22.10
2018-09-04T06:52:49.455Z,22.46
2018-09-04T06:55:18.632Z,22.41
2018-09-04T06:57:47.909Z,22.58
2018-09-04T07:00:17.124Z,22.88
2018-09-04T07:02:46.353Z,22.82
2018-09-04T07:05:15.480Z,23.26
2018-09-04T07:07:44.642Z,22.96
2018-09-04T07:10:14.269Z,23.33
2018-09-04T07:12:43.519Z,23.48
2018-09-04T07:15:14.374Z,23.92
2018-09-04T07:17:43.497Z,23.61
2018-09-04T07:20:12.667Z,24.14
2018-09-04T07:22:41.851Z,24.30
2018-09-04T07:25:10.982Z,24.34
2018-09-04T07:27:40.127Z,24.96
2018-09-04T07:30:09.996Z,25.08
2018-09-04T07:32:39.222Z,25.55
2018-09-04T07:35:08.389Z,25.54
2018-09-04T07:37:37.512Z,25.95
2018-09-04T07:40:06.758Z,26.00
2018-09-04T07:42:35.924Z,26.00
2018-09-04T07:45:05.548Z,25.81
2018-09-04T07:47:34.743Z,25.75
2018-09-04T07:50:04.039Z,25.84
2018-09-04T07:52:33.780Z,26.00
2018-09-04T07:55:03.031Z,26.23
2018-09-04T07:57:32.197Z,26.51
2018-09-04T08:00:01.361Z,27.01
2018-09-04T08:02:30.508Z,26.96
2018-09-04T08:04:59.638Z,27.24
2018-09-04T08:07:28.827Z,27.39
2018-09-04T08:09:58.011Z,27.35
2018-09-04T08:12:27.123Z,27.36
2018-09-04T08:14:56.295Z,27.27
2018-09-04T08:17:25.471Z,27.22
2018-09-04T08:19:54.640Z,27.55
2018-09-04T08:22:23.823Z,27.45
2018-09-04T08:24:52.961Z,27.60
2018-09-04T08:27:22.053Z,28.06
2018-09-04T08:29:51.276Z,27.97
2018-09-04T08:32:20.522Z,27.88
2018-09-04T08:34:49.695Z,27.80
2018-09-04T08:37:18.957Z,28.25
2018-09-04T08:39:48.143Z,27.84
2018-09-04T08:42:17.362Z,27.63
2018-09-04T08:44:46.613Z,28.01
2018-09-04T08:47:15.848Z,27.88
2018-09-04T08:49:45.008Z,28.45
2018-09-04T08:52:14.191Z,28.58
2018-09-04T08:54:43.474Z,28.87
2018-09-04T08:57:12.657Z,28.68
2018-09-04T08:59:41.892Z,28.95
2018-09-04T09:02:11.556Z,29.06
2018-09-04T09:04:40.694Z,29.20
2018-09-04T09:07:09.876Z,29.13
2018-09-04T09:09:39.016Z,29.52
2018-09-04T09:12:08.239Z,29.40
2018-09-04T09:14:37.359Z,29.33
2018-09-04T09:17:06.593Z,29.59
2018-09-04T09:19:35.851Z,29.87
2018-09-04T09:22:05.192Z,30.08
2018-09-04T09:24:34.287Z,30.23
2018-09-04T09:27:03.507Z,30.31
2018-09-04T09:29:32.627Z,30.02
2018-09-04T09:32:01.864Z,30.21
2018-09-04T09:34:31.024Z,29.27
2018-09-04T09:37:00.189Z,29.55
2018-09-04T09:39:29.321Z,29.50
2018-09-04T09:41:58.444Z,29.75
2018-09-04T09:44:28.701Z,28.91
2018-09-04T09:47:01.763Z,29.21
2018-09-04T09:49:32.366Z,29.53
2018-09-04T09:52:01.503Z,29.75
2018-09-04T09:54:30.616Z,29.69
2018-09-04T09:56:59.768Z,30.36
2018-09-04T09:59:29.077Z,30.46
2018-09-04T10:02:03.495Z,30.73
2018-09-04T10:04:32.648Z,30.85
2018-09-04T10:07:01.760Z,30.45
2018-09-04T10:09:31.005Z,30.18
2018-09-04T10:12:00.116Z,29.63
2018-09-04T10:14:29.775Z,28.84
2018-09-04T10:16:58.895Z,28.62
2018-09-04T10:19:28.169Z,28.53
2018-09-04T10:21:57.364Z,28.66
2018-09-04T10:24:26.551Z,28.34
2018-09-04T10:26:55.715Z,28.33
2018-09-04T10:29:25.069Z,28.17
2018-09-04T10:31:54.204Z,28.52
2018-09-04T10:34:23.341Z,28.99
2018-09-04T10:36:52.511Z,29.35
2018-09-04T10:39:26.907Z,29.55
2018-09-04T10:41:56.032Z,30.28
2018-09-04T10:44:25.303Z,30.67
2018-09-04T10:46:54.412Z,30.89
2018-09-04T10:49:23.628Z,31.45
2018-09-04T10:51:52.763Z,31.80
2018-09-04T10:54:21.895Z,32.16
2018-09-04T10:56:51.013Z,32.30
2018-09-04T10:59:20.229Z,32.04
2018-09-04T11:01:49.491Z,32.04
2018-09-04T11:04:18.648Z,31.94
2018-09-04T11:06:47.773Z,32.11
2018-09-04T11:09:16.959Z,32.71
2018-09-04T11:11:46.108Z,32.89
2018-09-04T11:14:15.327Z,32.83
2018-09-04T11:16:44.599Z,32.82
2018-09-04T11:19:13.859Z,32.60
2018-09-04T11:21:43.019Z,32.82
2018-09-04T11:24:12.209Z,32.60
2018-09-04T11:26:41.507Z,32.65
2018-09-04T11:29:12.568Z,32.78
2018-09-04T11:31:41.748Z,32.56
2018-09-04T11:34:10.988Z,31.74
2018-09-04T11:36:40.455Z,31.96
2018-09-04T11:39:10.993Z,31.24
2018-09-04T11:41:40.231Z,31.65
2018-09-04T11:44:09.348Z,31.23
2018-09-04T11:46:38.495Z,31.32
2018-09-04T11:49:07.732Z,31.61
2018-09-04T11:51:36.904Z,31.20
2018-09-04T11:54:06.179Z,30.96
2018-09-04T11:56:40.561Z,30.78
2018-09-04T11:59:09.843Z,30.24
2018-09-04T12:01:42.012Z,31.29
2018-09-04T12:04:11.209Z,31.59
2018-09-04T12:06:40.520Z,31.82
2018-09-04T12:09:09.512Z,31.74
2018-09-04T12:11:38.680Z,31.99
2018-09-04T12:14:07.795Z,31.85
2018-09-04T12:16:36.984Z,31.77
2018-09-04T12:19:06.140Z,31.37
2018-09-04T12:21:35.272Z,30.71
2018-09-04T12:24:04.459Z,30.17
2018-09-04T12:26:33.674Z,30.45
2018-09-04T12:29:02.801Z,30.37
2018-09-04T12:31:31.964Z,30.36
2018-09-04T12:34:01.205Z,30.63
2018-09-04T12:36:36.979Z,30.83
2018-09-04T12:39:06.955Z,31.28
2018-09-04T12:41:36.075Z,31.69
2018-09-04T12:44:05.324Z,31.73
2018-09-04T12:46:34.557Z,31.96
2018-09-04T12:49:03.735Z,32.47
2018-09-04T12:51:32.907Z,32.67
2018-09-04T12:54:02.068Z,32.23
2018-09-04T12:56:31.236Z,31.90
2018-09-04T12:59:00.409Z,31.27
2018-09-04T13:01:29.683Z,30.98
2018-09-04T13:03:58.816Z,30.81
2018-09-04T13:06:28.117Z,31.32
2018-09-04T13:08:57.270Z,31.21
2018-09-04T13:11:26.444Z,31.62
2018-09-04T13:13:55.704Z,31.65
2018-09-04T13:16:24.917Z,31.59
2018-09-04T13:18:54.148Z,31.94
2018-09-04T13:21:23.902Z,31.79
2018-09-04T13:23:53.121Z,31.86
2018-09-04T13:26:22.216Z,31.95
2018-09-04T13:28:51.456Z,32.23
2018-09-04T13:31:20.759Z,31.77
2018-09-04T13:33:49.945Z,30.98
2018-09-04T13:36:19.216Z,31.13
2018-09-04T13:38:48.603Z,31.02
2018-09-04T13:41:17.979Z,30.52
2018-09-04T13:43:47.230Z,30.33
2018-09-04T13:46:16.369Z,30.30
2018-09-04T13:48:45.592Z,30.44
2018-09-04T13:51:14.731Z,30.91
2018-09-04T13:53:43.895Z,31.29
2018-09-04T13:56:13.052Z,30.81
2018-09-04T13:58:42.273Z,30.46
2018-09-04T14:01:11.444Z,30.71
2018-09-04T14:03:40.624Z,31.20
2018-09-04T14:06:09.806Z,31.26
2018-09-04T14:08:38.928Z,31.43
2018-09-04T14:11:08.205Z,31.12
2018-09-04T14:13:37.304Z,30.71
2018-09-04T14:16:11.480Z,30.52
2018-09-04T14:18:40.640Z,30.03
2018-09-04T14:21:09.803Z,29.95
2018-09-04T14:23:38.943Z,30.07
2018-09-04T14:26:08.119Z,29.65
2018-09-04T14:28:40.975Z,29.80
2018-09-04T14:31:06.774Z,30.33
2018-09-04T14:33:35.968Z,30.07
2018-09-04T14:36:05.193Z,30.15
2018-09-04T14:38:34.345Z,30.42
2018-09-04T14:41:04.332Z,30.53
2018-09-04T14:43:33.498Z,30.18
2018-09-04T14:46:02.850Z,30.32
2018-09-04T14:48:32.136Z,30.61
2018-09-04T14:51:01.382Z,30.31
2018-09-04T14:53:30.593Z,30.29
2018-09-04T14:55:59.783Z,30.01
2018-09-04T14:58:28.951Z,30.24
2018-09-04T15:00:58.172Z,29.65
2018-09-04T15:03:27.441Z,29.80
2018-09-04T15:05:57.174Z,29.48
2018-09-04T15:08:26.279Z,29.60
2018-09-04T15:10:55.415Z,29.38
2018-09-04T15:13:24.649Z,29.08
2018-09-04T15:15:53.979Z,28.31
2018-09-04T15:18:23.211Z,27.96
2018-09-04T15:20:52.321Z,26.33
2018-09-04T15:23:21.463Z,25.23
2018-09-04T15:25:50.704Z,23.54
2018-09-04T15:28:20.008Z,22.09
2018-09-04T15:30:49.302Z,21.32
2018-09-04T15:33:18.604Z,20.86
2018-09-04T15:35:47.827Z,20.87
2018-09-04T15:38:17.008Z,20.78
2018-09-04T15:40:46.439Z,20.66
2018-09-04T15:43:15.660Z,20.57
2018-09-04T15:45:45.747Z,20.55
2018-09-04T15:48:15.089Z,20.37
2018-09-04T15:50:44.295Z,20.36
2018-09-04T15:53:13.504Z,20.32
2018-09-04T15:55:42.671Z,20.31
2018-09-04T15:58:11.846Z,20.25
2018-09-04T16:00:40.963Z,20.18
2018-09-04T16:03:10.124Z,20.13
2018-09-04T16:05:39.309Z,19.98
2018-09-04T16:08:08.623Z,19.98
2018-09-04T16:10:37.751Z,19.94
2018-09-04T16:13:06.991Z,19.85
2018-09-04T16:15:36.204Z,19.75
2018-09-04T16:18:05.380Z,19.68
2018-09-04T16:20:34.491Z,19.63
2018-09-04T16:23:03.757Z,19.63
2018-09-04T16:25:32.895Z,19.68
2018-09-04T16:28:02.059Z,19.70
2018-09-04T16:30:31.721Z,19.78
2018-09-04T16:33:00.921Z,19.83
2018-09-04T16:35:30.211Z,19.87
2018-09-04T16:38:00.336Z,19.90
2018-09-04T16:40:29.559Z,19.89
2018-09-04T16:42:58.723Z,19.87
2018-09-04T16:45:29.816Z,19.87
2018-09-04T16:47:59.455Z,19.87
2018-09-04T16:50:28.859Z,19.83
2018-09-04T16:52:58.012Z,19.80
2018-09-04T16:55:27.143Z,19.68
2018-09-04T16:57:56.607Z,19.62
2018-09-04T17:00:25.877Z,19.61
2018-09-04T17:02:55.189Z,19.59
2018-09-04T17:05:24.432Z,19.64
2018-09-04T17:07:55.051Z,19.73
2018-09-04T17:10:24.292Z,19.79
2018-09-04T17:12:53.530Z,19.78
2018-09-04T17:15:23.244Z,19.78
2018-09-04T17:17:52.405Z,19.79
2018-09-04T17:20:22.018Z,19.81
2018-09-04T17:22:51.235Z,19.86
2018-09-04T17:25:20.447Z,19.91
2018-09-04T17:27:49.920Z,20.00
2018-09-04T17:30:19.316Z,19.98
2018-09-04T17:32:48.456Z,19.96
2018-09-04T17:35:17.700Z,19.99
2018-09-04T17:37:46.886Z,20.00
2018-09-04T17:40:16.097Z,20.01
2018-09-04T17:42:45.501Z,20.07
2018-09-04T17:45:15.291Z,20.03
2018-09-04T17:47:44.535Z,20.04
2018-09-04T17:50:13.687Z,20.03
2018-09-04T17:52:43.094Z,20.04
2018-09-04T17:55:12.276Z,20.06
2018-09-04T17:57:41.443Z,20.01
2018-09-04T18:00:11.584Z,19.99
2018-09-04T18:02:40.791Z,19.96
2018-09-04T18:05:10.075Z,19.99
2018-09-04T18:07:39.272Z,19.97
2018-09-04T18:10:08.435Z,19.97
2018-09-04T18:12:37.596Z,19.96
2018-09-04T18:15:07.698Z,19.97
2018-09-04T18:17:36.943Z,19.92
2018-09-04T18:20:06.579Z,19.89
2018-09-04T18:22:35.751Z,19.86
2018-09-04T18:25:05.047Z,19.83
2018-09-04T18:27:34.353Z,19.76
2018-09-04T18:30:03.644Z,19.73
2018-09-04T18:32:33.028Z,19.67
2018-09-04T18:35:02.264Z,19.67
2018-09-04T18:37:31.704Z,19.59
2018-09-04T18:40:01.011Z,19.56
2018-09-04T18:42:30.306Z,19.59
2018-09-04T18:44:59.538Z,19.56
2018-09-04T18:47:35.364Z,19.57
2018-09-04T18:50:04.703Z,19.62
2018-09-04T18:52:33.967Z,19.60
2018-09-04T18:55:03.235Z,19.63
2018-09-04T18:57:32.484Z,19.66
2018-09-04T19:00:01.745Z,19.64
2018-09-04T19:02:31.071Z,19.64
2018-09-04T19:05:00.296Z,19.59
2018-09-04T19:07:29.611Z,19.58
2018-09-04T19:09:59.008Z,19.58
2018-09-04T19:12:29.885Z,19.56
2018-09-04T19:14:59.308Z,19.54
2018-09-04T19:17:29.109Z,19.54
2018-09-04T19:19:58.440Z,19.56
2018-09-04T19:22:27.820Z,19.58
2018-09-04T19:24:57.073Z,19.60
2018-09-04T19:27:26.398Z,19.59
2018-09-04T19:29:55.940Z,19.64
2018-09-04T19:32:25.394Z,19.63
2018-09-04T19:34:54.524Z,19.66
2018-09-04T19:37:23.907Z,19.66
2018-09-04T19:39:53.179Z,19.64
2018-09-04T19:42:22.348Z,19.69
2018-09-04T19:44:51.541Z,19.69
2018-09-04T19:47:20.865Z,19.71
2018-09-04T19:49:50.223Z,19.72
2018-09-04T19:52:19.427Z,19.75
2018-09-04T19:54:48.696Z,19.74
2018-09-04T19:57:18.008Z,19.74
2018-09-04T19:59:47.259Z,19.75
2018-09-04T20:02:16.529Z,19.78
2018-09-04T20:08:08.160Z,19.80
2018-09-04T20:10:37.394Z,19.84
2018-09-04T20:13:06.775Z,19.83
2018-09-04T20:15:36.067Z,19.87
2018-09-04T20:18:05.831Z,19.88
2018-09-04T20:20:35.198Z,19.87
2018-09-04T20:23:04.448Z,19.86
2018-09-04T20:25:33.631Z,19.87
2018-09-04T20:28:02.867Z,19.93
2018-09-04T20:30:32.073Z,19.89
2018-09-04T20:33:01.266Z,19.88
2018-09-04T20:35:31.312Z,19.90
2018-09-04T20:38:00.601Z,19.86
2018-09-04T20:40:29.841Z,19.98
2018-09-04T20:42:59.055Z,20.01
2018-09-04T20:45:28.732Z,19.96
2018-09-04T20:47:58.042Z,19.93
2018-09-04T20:50:27.304Z,19.86
2018-09-04T20:52:56.463Z,19.92
2018-09-04T20:55:25.812Z,19.87
2018-09-04T20:58:11.912Z,19.88
2018-09-04T21:00:57.963Z,19.83
2018-09-04T21:03:44.178Z,19.80
2018-09-04T21:06:30.340Z,19.80
2018-09-04T21:09:06.465Z,19.79
2018-09-04T21:11:35.668Z,19.84
2018-09-04T21:14:04.912Z,19.86
2018-09-04T21:16:34.212Z,19.88
2018-09-04T21:19:03.357Z,19.79
2018-09-04T21:21:32.511Z,19.72
2018-09-04T21:24:01.803Z,19.64
2018-09-04T21:26:31.103Z,19.64
2018-09-04T21:29:00.449Z,19.58
2018-09-04T21:31:29.682Z,19.54
2018-09-04T21:33:58.997Z,19.55
2018-09-04T21:36:28.118Z,19.57
2018-09-04T21:38:57.349Z,19.83
2018-09-04T21:41:26.521Z,19.78
2018-09-04T21:43:55.699Z,19.79
2018-09-04T21:46:24.881Z,19.70
2018-09-04T21:48:54.114Z,19.71
2018-09-04T21:51:23.318Z,19.70
2018-09-04T21:53:52.591Z,19.69
2018-09-04T21:56:21.824Z,19.66
2018-09-04T21:58:51.076Z,19.64
2018-09-04T22:01:20.339Z,19.64
2018-09-04T22:03:49.923Z,19.59
2018-09-04T22:06:19.129Z,19.61
2018-09-04T22:08:48.279Z,19.60
2018-09-04T22:11:17.505Z,19.60
2018-09-04T22:13:46.727Z,19.59
2018-09-04T22:16:15.909Z,19.63
2018-09-04T22:18:45.138Z,19.63
2018-09-04T22:21:14.313Z,19.62
2018-09-04T22:23:43.622Z,19.64
2018-09-04T22:26:13.441Z,19.69
2018-09-04T22:28:42.600Z,19.67
2018-09-04T22:31:11.879Z,19.72
2018-09-04T22:33:41.059Z,19.66
2018-09-04T22:36:10.231Z,19.67
2018-09-04T22:38:39.420Z,19.65
2018-09-04T22:41:08.651Z,19.66
2018-09-04T22:43:38.241Z,19.69
2018-09-04T22:46:07.844Z,19.69
2018-09-04T22:48:37.080Z,19.68
2018-09-04T22:51:11.604Z,19.64
2018-09-04T22:53:40.811Z,19.67
2018-09-04T22:56:09.973Z,19.64
2018-09-04T22:58:39.178Z,19.60
2018-09-04T23:01:08.383Z,19.57
2018-09-04T23:03:37.588Z,19.55
2018-09-04T23:06:07.079Z,19.56
2018-09-04T23:08:36.324Z,19.55
2018-09-04T23:11:05.636Z,19.53
2018-09-04T23:13:34.817Z,19.54
2018-09-04T23:16:04.100Z,19.55
2018-09-04T23:18:33.308Z,19.56
2018-09-04T23:21:02.509Z,19.52
2018-09-04T23:23:31.783Z,19.50
2018-09-04T23:26:00.996Z,19.47
2018-09-04T23:28:30.684Z,19.50
2018-09-04T23:31:00.251Z,19.46
2018-09-04T23:33:29.934Z,19.40
2018-09-04T23:35:59.131Z,19.37
2018-09-04T23:38:28.291Z,19.38
2018-09-04T23:40:57.612Z,19.38
2018-09-04T23:43:26.829Z,19.34
2018-09-04T23:45:56.015Z,19.28
2018-09-04T23:48:25.240Z,19.27
2018-09-04T23:50:54.539Z,19.30
2018-09-04T23:53:23.679Z,19.29
2018-09-04T23:55:52.859Z,19.29
2018-09-04T23:58:22.625Z,19.32
